createdAt,value
2022-09-06T00:00:29.117Z,3.20
2022-09-06T00:02:57.785Z,3.00
2022-09-06T00:05:25.657Z,3.00
2022-09-06T00:07:54.059Z,3.20
2022-09-06T00:10:21.776Z,3.70
2022-09-06T00:12:49.655Z,3.10
2022-09-06T00:15:17.578Z,3.00
2022-09-06T00:17:45.278Z,2.80
2022-09-06T00:20:13.030Z,3.10
2022-09-06T00:22:40.667Z,3.10
2022-09-06T00:25:08.962Z,3.20
2022-09-06T00:27:36.721Z,3.30
2022-09-06T00:30:05.011Z,3.20
2022-09-06T00:32:33.012Z,3.00
2022-09-06T00:35:00.710Z,3.40
2022-09-06T00:37:28.425Z,3.20
2022-09-06T00:39:56.185Z,3.50
2022-09-06T00:42:23.965Z,3.00
2022-09-06T00:44:51.613Z,3.10
2022-09-06T00:47:19.607Z,3.10
2022-09-06T00:49:52.116Z,3.20
2022-09-06T00:52:20.726Z,3.10
2022-09-06T00:54:50.630Z,3.10
2022-09-06T00:57:18.976Z,3.20
2022-09-06T00:59:48.210Z,3.00
2022-09-06T01:02:15.972Z,3.30
2022-09-06T01:04:45.465Z,3.20
2022-09-06T01:07:34.988Z,2.90
2022-09-06T01:10:24.322Z,3.10
2022-09-06T01:13:08.094Z,3.30
2022-09-06T01:15:54.610Z,3.00
2022-09-06T01:18:49.113Z,3.40
2022-09-06T01:21:16.678Z,3.30
2022-09-06T01:24:01.482Z,3.30
2022-09-06T01:26:45.101Z,3.10
2022-09-06T01:29:28.666Z,2.90
2022-09-06T01:32:20.283Z,3.10
2022-09-06T01:34:54.084Z,3.10
2022-09-06T01:39:50.793Z,3.20
2022-09-06T01:42:25.597Z,3.20
2022-09-06T01:44:59.125Z,3.40
2022-09-06T01:47:58.492Z,3.10
2022-09-06T01:50:42.122Z,3.20
2022-09-06T01:53:29.887Z,3.20
2022-09-06T01:56:09.889Z,3.10
2022-09-06T01:59:07.684Z,3.10
2022-09-06T02:01:51.779Z,3.70
2022-09-06T02:07:18.068Z,3.10
2022-09-06T02:09:58.133Z,3.00
2022-09-06T02:12:29.690Z,3.30
2022-09-06T02:15:06.848Z,3.50
2022-09-06T02:17:40.905Z,3.00
2022-09-06T02:20:14.761Z,3.20
2022-09-06T02:22:46.583Z,3.20
2022-09-06T02:25:21.913Z,3.40
2022-09-06T02:27:50.305Z,3.20
2022-09-06T02:30:18.134Z,3.30
2022-09-06T02:33:06.919Z,3.20
2022-09-06T02:35:43.672Z,3.20
2022-09-06T02:38:11.715Z,3.30
2022-09-06T02:40:40.088Z,3.20
2022-09-06T02:43:08.506Z,3.10
2022-09-06T02:45:36.848Z,3.10
2022-09-06T02:48:04.886Z,3.50
2022-09-06T02:50:32.546Z,3.50
2022-09-06T02:53:16.300Z,3.30
2022-09-06T02:55:46.297Z,3.00
2022-09-06T02:58:15.687Z,3.40
2022-09-06T03:00:44.053Z,3.20
2022-09-06T03:03:12.239Z,3.60
2022-09-06T03:05:39.876Z,3.20
2022-09-06T03:08:07.500Z,3.10
2022-09-06T03:10:35.105Z,3.00
2022-09-06T03:13:03.206Z,3.20
2022-09-06T03:15:30.829Z,3.20
2022-09-06T03:17:59.609Z,3.20
2022-09-06T03:20:27.236Z,3.40
2022-09-06T03:22:54.917Z,3.10
2022-09-06T03:25:22.638Z,3.10
2022-09-06T03:27:50.373Z,3.20
2022-09-06T03:30:18.683Z,2.90
2022-09-06T03:32:46.326Z,3.30
2022-09-06T03:35:14.930Z,3.30
2022-09-06T03:37:42.528Z,3.30
2022-09-06T03:40:11.499Z,2.90
2022-09-06T03:42:39.231Z,3.20
2022-09-06T03:45:07.763Z,3.10
2022-09-06T03:47:35.503Z,3.20
2022-09-06T03:50:04.088Z,3.20
2022-09-06T03:52:33.074Z,3.50
2022-09-06T03:55:00.689Z,3.80
2022-09-06T03:57:28.815Z,3.40
2022-09-06T03:59:56.784Z,3.50
2022-09-06T04:02:24.552Z,3.70
2022-09-06T04:04:55.379Z,3.50
2022-09-06T04:07:23.056Z,3.80
2022-09-06T04:09:50.680Z,3.40
2022-09-06T04:12:18.375Z,3.50
2022-09-06T04:14:45.986Z,3.80
2022-09-06T04:17:14.616Z,3.70
2022-09-06T04:19:42.382Z,3.40
2022-09-06T04:22:10.442Z,3.30
2022-09-06T04:24:38.066Z,3.50
2022-09-06T04:27:05.805Z,3.60
2022-09-06T04:29:33.459Z,3.50
2022-09-06T04:32:01.292Z,3.50
2022-09-06T04:34:29.329Z,3.30
2022-09-06T04:36:57.080Z,3.70
2022-09-06T04:39:24.722Z,3.50
2022-09-06T04:41:52.689Z,3.40
2022-09-06T04:44:20.408Z,3.40
2022-09-06T04:46:48.935Z,3.50
2022-09-06T04:49:16.623Z,3.50
2022-09-06T04:51:45.110Z,3.30
2022-09-06T04:54:12.851Z,3.50
2022-09-06T04:56:40.450Z,3.60
2022-09-06T04:59:08.203Z,3.50
2022-09-06T05:01:35.923Z,3.60
2022-09-06T05:04:03.770Z,3.60
2022-09-06T05:06:31.416Z,3.60
2022-09-06T05:08:59.777Z,3.80
2022-09-06T05:11:27.584Z,3.60
2022-09-06T05:13:55.591Z,3.50
2022-09-06T05:16:23.291Z,3.60
2022-09-06T05:18:51.125Z,3.70
2022-09-06T05:21:19.273Z,3.30
2022-09-06T05:23:46.917Z,3.70
2022-09-06T05:26:14.793Z,3.70
2022-09-06T05:28:42.689Z,3.40
2022-09-06T05:31:25.490Z,3.40
2022-09-06T05:33:54.347Z,3.70
2022-09-06T05:36:23.591Z,3.50
2022-09-06T05:38:54.091Z,3.20
2022-09-06T05:41:23.385Z,3.80
2022-09-06T05:43:51.098Z,3.80
2022-09-06T05:46:19.814Z,3.60
2022-09-06T05:48:55.882Z,3.50
2022-09-06T05:51:24.157Z,3.40
2022-09-06T05:53:52.107Z,3.50
2022-09-06T05:56:19.759Z,3.70
2022-09-06T05:58:47.431Z,3.30
2022-09-06T06:01:20.484Z,3.20
2022-09-06T06:03:56.983Z,3.50
2022-09-06T06:06:26.997Z,3.70
2022-09-06T06:09:32.086Z,3.40
2022-09-06T06:12:05.876Z,3.60
2022-09-06T06:14:34.628Z,3.20
2022-09-06T06:17:02.629Z,3.30
2022-09-06T06:19:31.475Z,3.20
2022-09-06T06:22:00.389Z,3.50
2022-09-06T06:24:28.023Z,3.10
2022-09-06T06:26:56.383Z,3.40
2022-09-06T06:29:25.305Z,3.30
2022-09-06T06:31:53.012Z,3.30
2022-09-06T06:34:22.873Z,3.00
2022-09-06T06:36:50.502Z,3.50
2022-09-06T06:39:18.323Z,3.20
2022-09-06T06:41:45.946Z,3.30
2022-09-06T06:44:29.593Z,3.30
2022-09-06T06:46:58.718Z,3.20
2022-09-06T06:49:26.393Z,3.10
2022-09-06T06:51:54.019Z,4.10
2022-09-06T06:54:21.648Z,5.50
2022-09-06T06:56:49.343Z,6.30
2022-09-06T06:59:16.961Z,5.10
2022-09-06T07:01:52.793Z,4.50
2022-09-06T07:04:20.474Z,3.30
2022-09-06T07:12:29.205Z,3.20
2022-09-06T07:14:57.833Z,2.80
2022-09-06T07:17:25.535Z,3.10
2022-09-06T07:22:40.978Z,3.00
2022-09-06T07:25:11.533Z,2.80
2022-09-06T07:27:48.042Z,2.70
2022-09-06T07:30:16.835Z,2.90
2022-09-06T07:32:44.449Z,2.70
2022-09-06T07:35:13.687Z,2.70
2022-09-06T07:37:41.333Z,3.20
2022-09-06T07:40:10.055Z,3.00
2022-09-06T07:42:37.946Z,2.90
2022-09-06T07:45:08.503Z,2.80
2022-09-06T07:53:15.593Z,2.60
2022-09-06T07:55:45.332Z,2.50
2022-09-06T07:58:13.011Z,2.50
2022-09-06T08:00:41.176Z,2.60
2022-09-06T08:03:09.790Z,2.50
2022-09-06T08:11:18.940Z,4.40
2022-09-06T08:13:56.523Z,2.70
2022-09-06T08:16:27.860Z,2.60
2022-09-06T08:18:58.164Z,2.80
2022-09-06T08:21:29.214Z,2.70
2022-09-06T08:24:01.946Z,2.90
2022-09-06T08:26:31.072Z,2.30
2022-09-06T08:29:01.256Z,2.80
2022-09-06T08:31:30.853Z,2.50
2022-09-06T08:34:00.426Z,2.40
2022-09-06T08:36:31.938Z,2.30
2022-09-06T08:39:05.294Z,2.00
2022-09-06T08:41:37.971Z,2.40
2022-09-06T08:47:11.958Z,2.10
2022-09-06T08:53:15.735Z,2.10
2022-09-06T08:56:06.550Z,2.20
2022-09-06T08:58:57.774Z,2.20
2022-09-06T09:01:34.135Z,2.10
2022-09-06T09:04:07.232Z,2.30
2022-09-06T09:06:38.522Z,2.50
2022-09-06T09:09:08.896Z,2.00
2022-09-06T09:11:39.179Z,2.10
2022-09-06T09:14:29.817Z,2.00
2022-09-06T09:17:06.124Z,2.10
2022-09-06T09:19:37.286Z,2.20
2022-09-06T09:22:05.000Z,2.10
2022-09-06T09:24:32.894Z,2.10
2022-09-06T09:27:19.747Z,2.50
2022-09-06T09:32:49.897Z,2.10
2022-09-06T09:35:31.809Z,2.30
2022-09-06T09:38:11.010Z,3.00
2022-09-06T09:40:49.832Z,2.60
2022-09-06T09:43:23.894Z,2.00
2022-09-06T09:46:11.375Z,2.90
2022-09-06T09:48:40.174Z,2.50
2022-09-06T09:51:27.502Z,3.00
2022-09-06T09:53:57.569Z,2.60
2022-09-06T09:57:10.061Z,2.50
2022-09-06T09:59:44.217Z,1.60
2022-09-06T10:02:32.051Z,4.40
2022-09-06T10:05:21.879Z,2.60
2022-09-06T10:07:54.665Z,3.80
2022-09-06T10:10:28.339Z,5.70
2022-09-06T10:13:24.230Z,2.60
2022-09-06T10:15:53.623Z,9.30
2022-09-06T10:18:38.902Z,2.50
2022-09-06T10:21:15.941Z,2.80
2022-09-06T10:27:07.053Z,2.80
2022-09-06T10:29:52.835Z,2.40
2022-09-06T10:32:45.819Z,2.70
2022-09-06T10:35:20.171Z,2.30
2022-09-06T10:38:19.615Z,2.20
2022-09-06T10:41:09.195Z,2.00
2022-09-06T10:44:08.267Z,2.00
2022-09-06T10:46:36.793Z,2.80
2022-09-06T10:49:06.507Z,3.20
2022-09-06T10:51:41.139Z,2.70
2022-09-06T10:54:12.586Z,2.50
2022-09-06T10:56:49.518Z,2.00
2022-09-06T11:02:10.810Z,2.10
2022-09-06T11:07:42.740Z,2.40
2022-09-06T11:10:23.439Z,2.20
2022-09-06T11:13:06.051Z,2.30
2022-09-06T11:15:45.169Z,2.00
2022-09-06T11:18:36.534Z,2.30
2022-09-06T11:21:22.741Z,2.10
2022-09-06T11:24:09.258Z,1.80
2022-09-06T11:27:08.875Z,3.40
2022-09-06T11:29:42.194Z,2.30
2022-09-06T11:32:43.231Z,2.00
2022-09-06T11:35:28.496Z,2.00
2022-09-06T11:38:01.813Z,2.40
2022-09-06T11:40:39.921Z,2.10
2022-09-06T11:43:10.854Z,2.50
2022-09-06T11:45:38.447Z,2.20
2022-09-06T11:48:33.859Z,1.90
2022-09-06T11:51:11.107Z,2.10
2022-09-06T11:53:57.643Z,1.80
2022-09-06T11:56:34.537Z,1.80
2022-09-06T11:59:18.699Z,1.80
2022-09-06T12:02:06.821Z,2.30
2022-09-06T12:05:07.607Z,2.00
2022-09-06T12:07:37.235Z,1.60
2022-09-06T12:10:36.706Z,1.70
2022-09-06T12:13:40.457Z,2.60
2022-09-06T12:16:10.041Z,1.70
2022-09-06T12:18:58.183Z,1.80
2022-09-06T12:21:43.541Z,1.60
2022-09-06T12:24:42.984Z,1.60
2022-09-06T12:27:19.430Z,10.70
2022-09-06T12:30:00.804Z,29.60
2022-09-06T12:32:36.836Z,4.80
2022-09-06T12:38:04.699Z,1.60
2022-09-06T12:40:40.827Z,1.70
2022-09-06T12:43:11.996Z,1.40
2022-09-06T12:45:48.235Z,1.40
2022-09-06T12:48:33.412Z,2.50
2022-09-06T12:51:06.693Z,1.30
2022-09-06T12:53:34.803Z,1.50
2022-09-06T12:56:08.022Z,1.30
2022-09-06T12:58:36.731Z,1.40
2022-09-06T13:01:27.445Z,1.00
2022-09-06T13:04:34.313Z,1.00
2022-09-06T13:07:04.151Z,1.20
2022-09-06T13:09:33.245Z,1.20
2022-09-06T13:12:07.545Z,0.90
2022-09-06T13:14:35.804Z,1.00
2022-09-06T13:17:03.707Z,0.60
2022-09-06T13:19:33.737Z,1.00
2022-09-06T13:22:05.297Z,0.70
2022-09-06T13:24:36.522Z,0.70
2022-09-06T13:27:26.144Z,0.70
2022-09-06T13:29:58.781Z,1.20
2022-09-06T13:32:28.060Z,1.00
2022-09-06T13:34:58.998Z,1.50
2022-09-06T13:37:33.637Z,0.70
2022-09-06T13:40:05.543Z,0.60
2022-09-06T13:42:37.099Z,0.70
2022-09-06T13:45:23.505Z,0.80
2022-09-06T13:47:54.540Z,0.80
2022-09-06T13:50:31.391Z,7.00
2022-09-06T13:52:59.760Z,1.00
2022-09-06T13:55:31.294Z,0.60
2022-09-06T13:57:59.117Z,1.90
2022-09-06T14:00:28.116Z,3.00
2022-09-06T14:02:55.866Z,2.40
2022-09-06T14:05:23.609Z,3.00
2022-09-06T14:07:51.242Z,1.70
2022-09-06T14:10:22.121Z,1.00
2022-09-06T14:12:50.154Z,0.90
2022-09-06T14:15:17.731Z,0.90
2022-09-06T14:17:46.642Z,1.00
2022-09-06T14:20:14.514Z,0.90
2022-09-06T14:22:42.076Z,0.60
2022-09-06T14:25:10.860Z,0.80
2022-09-06T14:27:38.472Z,0.50
2022-09-06T14:30:06.808Z,0.60
2022-09-06T14:32:34.557Z,0.60
2022-09-06T14:35:05.414Z,0.50
2022-09-06T14:37:34.102Z,0.90
2022-09-06T14:40:01.777Z,0.60
2022-09-06T14:42:29.913Z,0.90
2022-09-06T14:44:57.555Z,0.90
2022-09-06T14:47:25.565Z,0.90
2022-09-06T14:49:53.132Z,3.00
2022-09-06T14:52:20.718Z,0.80
2022-09-06T14:54:48.294Z,0.70
2022-09-06T14:57:15.882Z,0.60
2022-09-06T14:59:43.519Z,1.00
2022-09-06T15:02:11.141Z,0.60
2022-09-06T15:04:38.943Z,0.80
2022-09-06T15:07:06.576Z,0.80
2022-09-06T15:09:34.428Z,0.90
2022-09-06T15:12:02.383Z,0.80
2022-09-06T15:14:30.275Z,0.50
2022-09-06T15:16:59.828Z,0.80
2022-09-06T15:19:29.005Z,0.80
2022-09-06T15:21:57.469Z,0.90
2022-09-06T15:24:25.671Z,0.80
2022-09-06T15:26:53.422Z,1.00
2022-09-06T15:29:21.488Z,1.00
2022-09-06T15:31:50.712Z,0.80
2022-09-06T15:34:20.369Z,0.60
2022-09-06T15:36:48.953Z,0.50
2022-09-06T15:39:17.339Z,1.00
2022-09-06T15:41:45.252Z,0.70
2022-09-06T15:44:15.432Z,0.80
2022-09-06T15:46:44.733Z,1.10
2022-09-06T15:49:16.115Z,1.10
2022-09-06T15:51:43.901Z,1.80
2022-09-06T15:54:13.243Z,1.60
2022-09-06T15:56:41.880Z,2.50
2022-09-06T15:59:10.751Z,1.30
2022-09-06T16:01:38.980Z,1.30
2022-09-06T16:04:07.286Z,1.40
2022-09-06T16:06:42.038Z,1.40
2022-09-06T16:09:17.415Z,1.40
2022-09-06T16:11:45.257Z,1.00
2022-09-06T16:14:15.779Z,1.10
2022-09-06T16:16:43.687Z,1.30
2022-09-06T16:19:12.765Z,2.60
2022-09-06T16:21:42.247Z,2.80
2022-09-06T16:24:12.388Z,2.10
2022-09-06T16:26:46.059Z,5.50
2022-09-06T16:29:16.422Z,15.90
2022-09-06T16:31:45.147Z,5.60
2022-09-06T16:34:14.047Z,2.70
2022-09-06T16:36:42.324Z,2.80
2022-09-06T16:39:10.887Z,3.50
2022-09-06T16:41:42.394Z,3.30
2022-09-06T16:44:18.798Z,2.60
2022-09-06T16:46:48.436Z,2.80
2022-09-06T16:49:17.574Z,2.70
2022-09-06T16:51:46.518Z,3.40
2022-09-06T16:54:16.327Z,4.10
2022-09-06T16:56:44.614Z,2.90
2022-09-06T16:59:15.168Z,3.40
2022-09-06T17:01:44.446Z,3.50
2022-09-06T17:04:13.103Z,5.30
2022-09-06T17:06:44.684Z,4.10
2022-09-06T17:09:19.190Z,3.80
2022-09-06T17:11:49.982Z,2.90
2022-09-06T17:14:18.594Z,2.70
2022-09-06T17:17:02.364Z,2.90
2022-09-06T17:19:33.879Z,3.30
2022-09-06T17:22:01.488Z,3.50
2022-09-06T17:24:29.178Z,3.90
2022-09-06T17:26:56.799Z,4.20
2022-09-06T17:29:26.541Z,4.10
2022-09-06T17:31:54.915Z,3.70
2022-09-06T17:34:22.549Z,3.10
2022-09-06T17:36:50.143Z,3.80
2022-09-06T17:39:20.977Z,6.00
2022-09-06T17:41:53.454Z,5.50
2022-09-06T17:44:25.320Z,4.80
2022-09-06T17:49:42.448Z,9.70
2022-09-06T17:52:11.142Z,7.30
2022-09-06T17:54:38.791Z,5.40
2022-09-06T17:57:06.426Z,5.20
2022-09-06T17:59:35.671Z,5.60
2022-09-06T18:02:04.792Z,4.80
2022-09-06T18:04:32.948Z,5.90
2022-09-06T18:07:00.711Z,9.00
2022-09-06T18:09:28.576Z,8.10
2022-09-06T18:11:56.957Z,7.60
2022-09-06T18:14:24.735Z,7.30
2022-09-06T18:16:52.471Z,7.60
2022-09-06T18:19:20.966Z,9.30
2022-09-06T18:21:48.958Z,8.30
2022-09-06T18:24:17.199Z,9.80
2022-09-06T18:26:45.007Z,8.40
2022-09-06T18:29:16.481Z,7.60
2022-09-06T18:31:44.768Z,11.50
2022-09-06T18:34:12.564Z,12.30
2022-09-06T18:36:40.351Z,12.40
2022-09-06T18:39:08.542Z,11.20
2022-09-06T18:41:52.156Z,12.70
2022-09-06T18:44:19.912Z,11.90
2022-09-06T18:46:48.508Z,13.90
2022-09-06T18:49:17.288Z,14.20
2022-09-06T18:51:45.601Z,15.20
2022-09-06T18:54:14.208Z,11.40
2022-09-06T18:56:44.721Z,11.10
2022-09-06T18:59:13.724Z,7.60
2022-09-06T19:01:43.012Z,7.10
2022-09-06T19:04:11.990Z,8.60
2022-09-06T19:06:41.230Z,9.80
2022-09-06T19:09:12.527Z,7.60
2022-09-06T19:11:45.541Z,5.50
2022-09-06T19:14:13.687Z,5.50
2022-09-06T19:16:42.089Z,4.30
2022-09-06T19:19:11.591Z,4.00
2022-09-06T19:21:42.311Z,4.00
2022-09-06T19:24:11.997Z,3.90
2022-09-06T19:26:42.549Z,3.80
2022-09-06T19:29:15.689Z,4.00
2022-09-06T19:31:44.493Z,3.80
2022-09-06T19:34:15.159Z,3.90
2022-09-06T19:36:44.475Z,4.00
2022-09-06T19:39:15.143Z,3.80
2022-09-06T19:41:44.983Z,3.60
2022-09-06T19:44:13.618Z,3.60
2022-09-06T19:46:45.742Z,3.60
2022-09-06T19:49:19.249Z,3.90
2022-09-06T19:51:49.020Z,3.80
2022-09-06T19:54:17.726Z,4.00
2022-09-06T19:56:46.106Z,3.50
2022-09-06T19:59:15.055Z,3.60
2022-09-06T20:01:44.508Z,3.40
2022-09-06T20:04:13.733Z,3.80
2022-09-06T20:06:41.809Z,3.80
2022-09-06T20:09:10.644Z,3.70
2022-09-06T20:11:40.121Z,3.70
2022-09-06T20:14:08.797Z,3.30
2022-09-06T20:16:41.431Z,3.40
2022-09-06T20:19:12.088Z,3.40
2022-09-06T20:21:39.947Z,3.30
2022-09-06T20:24:08.165Z,3.40
2022-09-06T20:26:36.376Z,3.30
2022-09-06T20:29:04.944Z,3.30
2022-09-06T20:31:33.512Z,3.40
2022-09-06T20:34:02.804Z,3.50
2022-09-06T20:36:30.655Z,3.10
2022-09-06T20:38:58.236Z,3.20
2022-09-06T20:41:26.807Z,3.20
2022-09-06T20:43:59.340Z,3.10
2022-09-06T20:46:32.263Z,3.30
2022-09-06T20:49:04.038Z,3.30
2022-09-06T20:51:34.344Z,3.70
2022-09-06T20:54:04.608Z,3.70
2022-09-06T20:56:39.723Z,3.60
2022-09-06T20:59:12.350Z,3.70
2022-09-06T21:01:43.221Z,3.50
2022-09-06T21:04:13.546Z,4.40
2022-09-06T21:06:41.544Z,4.00
2022-09-06T21:09:11.876Z,3.30
2022-09-06T21:11:40.331Z,3.40
2022-09-06T21:14:09.363Z,3.70
2022-09-06T21:16:38.348Z,3.60
2022-09-06T21:19:09.265Z,3.60
2022-09-06T21:21:37.943Z,3.60
2022-09-06T21:24:07.377Z,3.80
2022-09-06T21:26:35.406Z,4.00
2022-09-06T21:29:03.748Z,3.80
2022-09-06T21:31:33.507Z,3.70
2022-09-06T21:34:04.915Z,3.50
2022-09-06T21:36:35.602Z,3.50
2022-09-06T21:39:06.769Z,3.30
2022-09-06T21:41:34.932Z,3.80
2022-09-06T21:44:04.848Z,3.60
2022-09-06T21:46:35.180Z,3.50
2022-09-06T21:49:08.121Z,3.80
2022-09-06T21:51:36.737Z,3.80
2022-09-06T21:54:05.856Z,3.80
2022-09-06T21:56:34.575Z,3.70
2022-09-06T21:59:03.240Z,3.60
2022-09-06T22:01:34.238Z,4.50
2022-09-06T22:04:02.575Z,3.80
2022-09-06T22:06:33.275Z,3.80
2022-09-06T22:09:04.016Z,3.70
2022-09-06T22:11:33.795Z,3.60
2022-09-06T22:14:03.852Z,3.90
2022-09-06T22:16:33.629Z,3.70
2022-09-06T22:19:03.577Z,3.70
2022-09-06T22:21:32.161Z,3.60
2022-09-06T22:24:02.218Z,3.60
2022-09-06T22:26:32.391Z,3.80
2022-09-06T22:29:02.458Z,3.80
2022-09-06T22:31:31.917Z,3.60
2022-09-06T22:34:00.200Z,3.60
2022-09-06T22:36:28.369Z,3.60
2022-09-06T22:38:57.579Z,3.80
2022-09-06T22:41:28.523Z,3.70
2022-09-06T22:43:56.547Z,3.70
2022-09-06T22:46:24.362Z,4.00
2022-09-06T22:48:52.202Z,3.70
2022-09-06T22:51:20.233Z,3.80
2022-09-06T22:53:47.907Z,3.90
2022-09-06T22:56:15.952Z,3.80
2022-09-06T22:58:43.884Z,4.00
2022-09-06T23:01:14.126Z,3.70
2022-09-06T23:03:42.847Z,3.80
2022-09-06T23:06:11.201Z,3.60
2022-09-06T23:08:40.674Z,3.70
2022-09-06T23:11:13.615Z,3.50
2022-09-06T23:13:45.953Z,3.60
2022-09-06T23:16:19.028Z,3.90
2022-09-06T23:18:47.733Z,3.80
2022-09-06T23:21:20.828Z,3.70
2022-09-06T23:23:50.755Z,3.30
2022-09-06T23:26:23.487Z,3.50
2022-09-06T23:28:56.203Z,3.60
2022-09-06T23:31:32.332Z,3.50
2022-09-06T23:34:01.824Z,3.60
2022-09-06T23:36:30.569Z,3.80
2022-09-06T23:38:58.534Z,3.50
2022-09-06T23:41:26.183Z,3.60
2022-09-06T23:43:54.473Z,3.60
2022-09-06T23:46:22.223Z,3.80
2022-09-06T23:48:50.508Z,3.50
2022-09-06T23:51:18.763Z,3.50
2022-09-06T23:53:46.650Z,3.60
2022-09-06T23:56:15.643Z,3.40
2022-09-06T23:58:43.249Z,3.50
